sensor_id;sensor_type;location;lat;lon;timestamp;temperature;humidity
63313;DHT22;49442;45.640;13.812;2022-10-16T00:01:45;14.70;99.90
63313;DHT22;49442;45.640;13.812;2022-10-16T00:04:11;14.70;99.90
63313;DHT22;49442;45.640;13.812;2022-10-16T00:06:37;14.70;99.90
63313;DHT22;49442;45.640;13.812;2022-10-16T00:09:03;14.60;99.90
63313;DHT22;49442;45.640;13.812;2022-10-16T00:11:31;14.60;99.90
63313;DHT22;49442;45.640;13.812;2022-10-16T00:14:03;14.60;99.90
63313;DHT22;49442;45.640;13.812;2022-10-16T00:16:30;14.60;99.90
63313;DHT22;49442;45.640;13.812;2022-10-16T00:18:56;14.60;99.90
63313;DHT22;49442;45.640;13.812;2022-10-16T00:21:24;14.60;99.90
63313;DHT22;49442;45.640;13.812;2022-10-16T00:23:55;14.70;99.90
63313;DHT22;49442;45.640;13.812;2022-10-16T00:26:21;14.60;99.90
63313;DHT22;49442;45.640;13.812;2022-10-16T00:28:48;14.60;99.90
63313;DHT22;49442;45.640;13.812;2022-10-16T00:31:14;14.60;99.90
63313;DHT22;49442;45.640;13.812;2022-10-16T00:33:40;14.70;99.90
63313;DHT22;49442;45.640;13.812;2022-10-16T00:36:09;14.70;99.90
63313;DHT22;49442;45.640;13.812;2022-10-16T00:38:35;14.70;99.90
63313;DHT22;49442;45.640;13.812;2022-10-16T00:41:04;14.70;99.90
63313;DHT22;49442;45.640;13.812;2022-10-16T00:46:19;14.70;99.90
63313;DHT22;49442;45.640;13.812;2022-10-16T00:48:54;14.70;99.90
63313;DHT22;49442;45.640;13.812;2022-10-16T00:51:24;14.70;99.90
63313;DHT22;49442;45.640;13.812;2022-10-16T00:53:51;14.70;99.90
63313;DHT22;49442;45.640;13.812;2022-10-16T00:56:18;14.70;99.90
63313;DHT22;49442;45.640;13.812;2022-10-16T00:58:44;14.70;99.90
63313;DHT22;49442;45.640;13.812;2022-10-16T01:01:10;14.60;99.90
63313;DHT22;49442;45.640;13.812;2022-10-16T01:03:36;14.60;99.90
63313;DHT22;49442;45.640;13.812;2022-10-16T01:06:22;14.60;99.90
63313;DHT22;49442;45.640;13.812;2022-10-16T01:11:55;14.70;99.90
63313;DHT22;49442;45.640;13.812;2022-10-16T01:17:00;14.70;99.90
63313;DHT22;49442;45.640;13.812;2022-10-16T01:22:14;14.70;99.90
63313;DHT22;49442;45.640;13.812;2022-10-16T01:24:44;14.60;99.90
63313;DHT22;49442;45.640;13.812;2022-10-16T01:27:33;14.60;99.90
63313;DHT22;49442;45.640;13.812;2022-10-16T01:30:15;14.70;99.90
63313;DHT22;49442;45.640;13.812;2022-10-16T01:32:53;14.70;99.90
63313;DHT22;49442;45.640;13.812;2022-10-16T01:35:29;14.70;99.90
63313;DHT22;49442;45.640;13.812;2022-10-16T01:40:24;14.70;99.90
63313;DHT22;49442;45.640;13.812;2022-10-16T01:42:56;14.60;99.90
63313;DHT22;49442;45.640;13.812;2022-10-16T01:45:24;14.70;99.90
63313;DHT22;49442;45.640;13.812;2022-10-16T01:47:51;14.60;99.90
63313;DHT22;49442;45.640;13.812;2022-10-16T01:50:19;14.60;99.90
63313;DHT22;49442;45.640;13.812;2022-10-16T01:52:48;14.60;99.90
63313;DHT22;49442;45.640;13.812;2022-10-16T01:55:18;14.60;99.90
63313;DHT22;49442;45.640;13.812;2022-10-16T01:57:48;14.60;99.90
63313;DHT22;49442;45.640;13.812;2022-10-16T02:00:16;14.60;99.90
63313;DHT22;49442;45.640;13.812;2022-10-16T02:02:45;14.60;99.90
63313;DHT22;49442;45.640;13.812;2022-10-16T02:05:24;14.60;99.90
63313;DHT22;49442;45.640;13.812;2022-10-16T02:07:51;14.60;99.90
63313;DHT22;49442;45.640;13.812;2022-10-16T02:10:17;14.60;99.90
63313;DHT22;49442;45.640;13.812;2022-10-16T02:12:49;14.60;99.90
63313;DHT22;49442;45.640;13.812;2022-10-16T02:15:16;14.60;99.90
63313;DHT22;49442;45.640;13.812;2022-10-16T02:17:41;14.60;99.90
63313;DHT22;49442;45.640;13.812;2022-10-16T02:20:07;14.70;99.90
63313;DHT22;49442;45.640;13.812;2022-10-16T02:22:34;14.70;99.90
63313;DHT22;49442;45.640;13.812;2022-10-16T02:25:26;14.70;99.90
63313;DHT22;49442;45.640;13.812;2022-10-16T02:28:03;14.70;99.90
63313;DHT22;49442;45.640;13.812;2022-10-16T02:31:21;14.70;99.90
63313;DHT22;49442;45.640;13.812;2022-10-16T02:33:29;14.70;99.90
63313;DHT22;49442;45.640;13.812;2022-10-16T02:35:57;14.70;99.90
63313;DHT22;49442;45.640;13.812;2022-10-16T02:38:23;14.70;99.90
63313;DHT22;49442;45.640;13.812;2022-10-16T02:40:50;14.80;99.90
63313;DHT22;49442;45.640;13.812;2022-10-16T02:43:17;14.70;99.90
63313;DHT22;49442;45.640;13.812;2022-10-16T02:45:43;14.70;99.90
63313;DHT22;49442;45.640;13.812;2022-10-16T02:48:08;14.80;99.90
63313;DHT22;49442;45.640;13.812;2022-10-16T02:50:34;14.80;99.90
63313;DHT22;49442;45.640;13.812;2022-10-16T02:53:00;14.80;99.90
63313;DHT22;49442;45.640;13.812;2022-10-16T02:55:26;14.80;99.90
63313;DHT22;49442;45.640;13.812;2022-10-16T02:57:53;14.80;99.90
63313;DHT22;49442;45.640;13.812;2022-10-16T03:00:22;14.90;99.90
63313;DHT22;49442;45.640;13.812;2022-10-16T03:02:47;14.90;99.90
63313;DHT22;49442;45.640;13.812;2022-10-16T03:05:13;14.90;99.90
63313;DHT22;49442;45.640;13.812;2022-10-16T03:07:39;14.90;99.90
63313;DHT22;49442;45.640;13.812;2022-10-16T03:10:06;14.90;99.90
63313;DHT22;49442;45.640;13.812;2022-10-16T03:12:32;14.90;99.90
63313;DHT22;49442;45.640;13.812;2022-10-16T03:14:58;14.90;99.90
63313;DHT22;49442;45.640;13.812;2022-10-16T03:17:24;15.00;99.90
63313;DHT22;49442;45.640;13.812;2022-10-16T03:19:50;15.00;99.90
63313;DHT22;49442;45.640;13.812;2022-10-16T03:22:16;15.00;99.90
63313;DHT22;49442;45.640;13.812;2022-10-16T03:24:42;15.00;99.90
63313;DHT22;49442;45.640;13.812;2022-10-16T03:27:07;15.10;99.90
63313;DHT22;49442;45.640;13.812;2022-10-16T03:29:33;15.10;99.90
63313;DHT22;49442;45.640;13.812;2022-10-16T03:31:59;15.10;99.90
63313;DHT22;49442;45.640;13.812;2022-10-16T03:34:25;15.10;99.90
63313;DHT22;49442;45.640;13.812;2022-10-16T03:36:51;15.10;99.90
63313;DHT22;49442;45.640;13.812;2022-10-16T03:39:17;15.20;99.90
63313;DHT22;49442;45.640;13.812;2022-10-16T03:41:43;15.20;99.90
63313;DHT22;49442;45.640;13.812;2022-10-16T03:44:08;15.20;99.90
63313;DHT22;49442;45.640;13.812;2022-10-16T03:46:34;15.10;99.90
63313;DHT22;49442;45.640;13.812;2022-10-16T03:49:00;15.20;99.90
63313;DHT22;49442;45.640;13.812;2022-10-16T03:51:25;15.20;99.90
63313;DHT22;49442;45.640;13.812;2022-10-16T03:53:51;15.20;99.90
63313;DHT22;49442;45.640;13.812;2022-10-16T03:56:17;15.30;99.90
63313;DHT22;49442;45.640;13.812;2022-10-16T03:58:42;15.20;99.90
63313;DHT22;49442;45.640;13.812;2022-10-16T04:01:08;15.20;99.90
63313;DHT22;49442;45.640;13.812;2022-10-16T04:03:34;15.30;99.90
63313;DHT22;49442;45.640;13.812;2022-10-16T04:05:59;15.30;99.90
63313;DHT22;49442;45.640;13.812;2022-10-16T04:08:25;15.30;99.90
63313;DHT22;49442;45.640;13.812;2022-10-16T04:10:51;15.30;99.90
63313;DHT22;49442;45.640;13.812;2022-10-16T04:13:16;15.30;99.90
63313;DHT22;49442;45.640;13.812;2022-10-16T04:15:44;15.20;99.90
63313;DHT22;49442;45.640;13.812;2022-10-16T04:18:09;15.20;99.90
63313;DHT22;49442;45.640;13.812;2022-10-16T04:20:35;15.20;99.90
63313;DHT22;49442;45.640;13.812;2022-10-16T04:23:01;15.20;99.90
63313;DHT22;49442;45.640;13.812;2022-10-16T04:25:27;15.20;99.90
63313;DHT22;49442;45.640;13.812;2022-10-16T04:27:54;15.20;99.90
63313;DHT22;49442;45.640;13.812;2022-10-16T04:30:20;15.20;99.90
63313;DHT22;49442;45.640;13.812;2022-10-16T04:32:52;15.10;99.90
63313;DHT22;49442;45.640;13.812;2022-10-16T04:35:19;15.10;99.90
63313;DHT22;49442;45.640;13.812;2022-10-16T04:37:46;15.10;99.90
63313;DHT22;49442;45.640;13.812;2022-10-16T04:40:13;15.00;99.90
63313;DHT22;49442;45.640;13.812;2022-10-16T04:42:38;15.00;99.90
63313;DHT22;49442;45.640;13.812;2022-10-16T04:45:05;15.00;99.90
63313;DHT22;49442;45.640;13.812;2022-10-16T04:47:31;15.00;99.90
63313;DHT22;49442;45.640;13.812;2022-10-16T04:49:57;14.90;99.90
63313;DHT22;49442;45.640;13.812;2022-10-16T04:52:22;14.90;99.90
63313;DHT22;49442;45.640;13.812;2022-10-16T04:54:50;14.90;99.90
63313;DHT22;49442;45.640;13.812;2022-10-16T04:57:17;14.90;99.90
63313;DHT22;49442;45.640;13.812;2022-10-16T04:59:42;14.90;99.90
63313;DHT22;49442;45.640;13.812;2022-10-16T05:02:08;14.80;99.90
63313;DHT22;49442;45.640;13.812;2022-10-16T05:04:34;14.80;99.90
63313;DHT22;49442;45.640;13.812;2022-10-16T05:07:00;14.70;99.90
63313;DHT22;49442;45.640;13.812;2022-10-16T05:09:25;14.80;99.90
63313;DHT22;49442;45.640;13.812;2022-10-16T05:11:51;14.70;99.90
63313;DHT22;49442;45.640;13.812;2022-10-16T05:14:17;14.70;99.90
63313;DHT22;49442;45.640;13.812;2022-10-16T05:16:43;14.70;99.90
63313;DHT22;49442;45.640;13.812;2022-10-16T05:19:08;14.70;99.90
63313;DHT22;49442;45.640;13.812;2022-10-16T05:21:34;14.70;99.90
63313;DHT22;49442;45.640;13.812;2022-10-16T05:24:00;14.70;99.90
63313;DHT22;49442;45.640;13.812;2022-10-16T05:26:25;14.70;99.90
63313;DHT22;49442;45.640;13.812;2022-10-16T05:28:51;14.70;99.90
63313;DHT22;49442;45.640;13.812;2022-10-16T05:31:17;14.70;99.90
63313;DHT22;49442;45.640;13.812;2022-10-16T05:33:42;14.70;99.90
63313;DHT22;49442;45.640;13.812;2022-10-16T05:36:09;14.60;99.90
63313;DHT22;49442;45.640;13.812;2022-10-16T05:38:36;14.60;99.90
63313;DHT22;49442;45.640;13.812;2022-10-16T05:41:03;14.60;99.90
63313;DHT22;49442;45.640;13.812;2022-10-16T05:43:29;14.60;99.90
63313;DHT22;49442;45.640;13.812;2022-10-16T05:46:05;14.60;99.90
63313;DHT22;49442;45.640;13.812;2022-10-16T05:48:32;14.60;99.90
63313;DHT22;49442;45.640;13.812;2022-10-16T05:51:03;14.60;99.90
63313;DHT22;49442;45.640;13.812;2022-10-16T05:53:31;14.60;99.90
63313;DHT22;49442;45.640;13.812;2022-10-16T05:55:58;14.60;99.90
63313;DHT22;49442;45.640;13.812;2022-10-16T05:58:25;14.70;99.90
63313;DHT22;49442;45.640;13.812;2022-10-16T06:01:05;14.70;99.90
63313;DHT22;49442;45.640;13.812;2022-10-16T06:03:32;14.70;99.90
63313;DHT22;49442;45.640;13.812;2022-10-16T06:05:58;14.70;99.90
63313;DHT22;49442;45.640;13.812;2022-10-16T06:08:24;14.70;99.90
63313;DHT22;49442;45.640;13.812;2022-10-16T06:11:03;14.80;99.90
63313;DHT22;49442;45.640;13.812;2022-10-16T06:13:29;14.80;99.90
63313;DHT22;49442;45.640;13.812;2022-10-16T06:15:57;14.80;99.90
63313;DHT22;49442;45.640;13.812;2022-10-16T06:18:23;14.80;99.90
63313;DHT22;49442;45.640;13.812;2022-10-16T06:20:49;14.90;99.90
63313;DHT22;49442;45.640;13.812;2022-10-16T06:23:15;14.90;99.90
63313;DHT22;49442;45.640;13.812;2022-10-16T06:25:40;15.00;99.90
63313;DHT22;49442;45.640;13.812;2022-10-16T06:28:06;15.00;99.90
63313;DHT22;49442;45.640;13.812;2022-10-16T06:30:32;15.00;99.90
63313;DHT22;49442;45.640;13.812;2022-10-16T06:32:57;15.00;99.90
63313;DHT22;49442;45.640;13.812;2022-10-16T06:35:23;15.10;99.90
63313;DHT22;49442;45.640;13.812;2022-10-16T06:37:49;15.10;99.90
63313;DHT22;49442;45.640;13.812;2022-10-16T06:40:15;15.10;99.90
63313;DHT22;49442;45.640;13.812;2022-10-16T06:42:41;15.20;99.90
63313;DHT22;49442;45.640;13.812;2022-10-16T06:45:07;15.20;99.90
63313;DHT22;49442;45.640;13.812;2022-10-16T06:47:33;15.30;99.90
63313;DHT22;49442;45.640;13.812;2022-10-16T06:49:58;15.30;99.90
63313;DHT22;49442;45.640;13.812;2022-10-16T06:52:24;15.40;99.90
63313;DHT22;49442;45.640;13.812;2022-10-16T06:54:50;15.40;99.90
63313;DHT22;49442;45.640;13.812;2022-10-16T06:57:16;15.50;99.90
63313;DHT22;49442;45.640;13.812;2022-10-16T06:59:41;15.50;99.90
63313;DHT22;49442;45.640;13.812;2022-10-16T07:02:08;15.50;99.90
63313;DHT22;49442;45.640;13.812;2022-10-16T07:04:36;15.50;99.90
63313;DHT22;49442;45.640;13.812;2022-10-16T07:07:01;15.60;99.90
63313;DHT22;49442;45.640;13.812;2022-10-16T07:09:27;15.50;99.90
63313;DHT22;49442;45.640;13.812;2022-10-16T07:11:53;15.60;99.90
63313;DHT22;49442;45.640;13.812;2022-10-16T07:14:20;15.70;99.90
63313;DHT22;49442;45.640;13.812;2022-10-16T07:16:46;15.70;99.90
63313;DHT22;49442;45.640;13.812;2022-10-16T07:19:13;15.80;99.90
63313;DHT22;49442;45.640;13.812;2022-10-16T07:21:40;15.90;99.90
63313;DHT22;49442;45.640;13.812;2022-10-16T07:24:14;15.90;99.90
63313;DHT22;49442;45.640;13.812;2022-10-16T07:26:40;16.00;99.90
63313;DHT22;49442;45.640;13.812;2022-10-16T07:29:14;16.10;99.90
63313;DHT22;49442;45.640;13.812;2022-10-16T07:31:40;16.10;99.90
63313;DHT22;49442;45.640;13.812;2022-10-16T07:34:06;16.10;99.90
63313;DHT22;49442;45.640;13.812;2022-10-16T07:36:31;16.20;99.90
63313;DHT22;49442;45.640;13.812;2022-10-16T07:38:57;16.30;99.90
63313;DHT22;49442;45.640;13.812;2022-10-16T07:41:23;16.40;99.90
63313;DHT22;49442;45.640;13.812;2022-10-16T07:43:51;16.50;99.90
63313;DHT22;49442;45.640;13.812;2022-10-16T07:46:18;16.60;99.90
63313;DHT22;49442;45.640;13.812;2022-10-16T07:48:44;16.60;99.90
63313;DHT22;49442;45.640;13.812;2022-10-16T07:51:15;16.70;99.90
63313;DHT22;49442;45.640;13.812;2022-10-16T07:53:41;16.80;99.90
63313;DHT22;49442;45.640;13.812;2022-10-16T07:56:07;16.90;99.90
63313;DHT22;49442;45.640;13.812;2022-10-16T07:58:34;17.00;99.90
63313;DHT22;49442;45.640;13.812;2022-10-16T08:01:13;17.00;99.90
63313;DHT22;49442;45.640;13.812;2022-10-16T08:03:48;17.10;99.90
63313;DHT22;49442;45.640;13.812;2022-10-16T08:06:14;17.20;99.90
63313;DHT22;49442;45.640;13.812;2022-10-16T08:08:40;17.30;99.90
63313;DHT22;49442;45.640;13.812;2022-10-16T08:11:06;17.30;99.90
63313;DHT22;49442;45.640;13.812;2022-10-16T08:13:33;17.40;99.90
63313;DHT22;49442;45.640;13.812;2022-10-16T08:15:59;17.50;99.90
63313;DHT22;49442;45.640;13.812;2022-10-16T08:18:25;17.60;99.90
63313;DHT22;49442;45.640;13.812;2022-10-16T08:20:58;17.60;99.90
63313;DHT22;49442;45.640;13.812;2022-10-16T08:23:24;17.70;99.90
63313;DHT22;49442;45.640;13.812;2022-10-16T08:25:52;17.80;99.90
63313;DHT22;49442;45.640;13.812;2022-10-16T08:28:22;18.00;99.90
63313;DHT22;49442;45.640;13.812;2022-10-16T08:30:48;18.10;99.90
63313;DHT22;49442;45.640;13.812;2022-10-16T08:33:14;18.20;99.90
63313;DHT22;49442;45.640;13.812;2022-10-16T08:35:39;18.40;99.90
63313;DHT22;49442;45.640;13.812;2022-10-16T08:38:06;18.50;99.90
63313;DHT22;49442;45.640;13.812;2022-10-16T08:40:33;18.70;99.90
63313;DHT22;49442;45.640;13.812;2022-10-16T08:48:51;19.00;99.90
63313;DHT22;49442;45.640;13.812;2022-10-16T08:51:22;19.00;99.90
63313;DHT22;49442;45.640;13.812;2022-10-16T08:53:59;19.10;99.90
63313;DHT22;49442;45.640;13.812;2022-10-16T08:56:29;19.20;99.90
63313;DHT22;49442;45.640;13.812;2022-10-16T08:58:57;19.20;99.90
63313;DHT22;49442;45.640;13.812;2022-10-16T09:01:32;19.30;99.90
63313;DHT22;49442;45.640;13.812;2022-10-16T09:10:00;19.60;99.90
63313;DHT22;49442;45.640;13.812;2022-10-16T09:23:27;19.60;99.90
63313;DHT22;49442;45.640;13.812;2022-10-16T09:25:53;19.50;99.90
63313;DHT22;49442;45.640;13.812;2022-10-16T09:28:20;19.60;99.90
63313;DHT22;49442;45.640;13.812;2022-10-16T09:30:46;19.60;99.90
63313;DHT22;49442;45.640;13.812;2022-10-16T09:33:15;19.60;99.90
63313;DHT22;49442;45.640;13.812;2022-10-16T09:35:45;19.60;99.90
63313;DHT22;49442;45.640;13.812;2022-10-16T09:38:30;19.70;99.90
63313;DHT22;49442;45.640;13.812;2022-10-16T09:40:58;19.70;99.90
63313;DHT22;49442;45.640;13.812;2022-10-16T09:43:36;19.70;99.90
63313;DHT22;49442;45.640;13.812;2022-10-16T09:46:27;19.70;99.90
63313;DHT22;49442;45.640;13.812;2022-10-16T09:49:01;19.70;99.90
63313;DHT22;49442;45.640;13.812;2022-10-16T09:51:33;19.70;99.90
63313;DHT22;49442;45.640;13.812;2022-10-16T09:56:35;19.80;99.90
63313;DHT22;49442;45.640;13.812;2022-10-16T09:59:30;19.90;99.90
63313;DHT22;49442;45.640;13.812;2022-10-16T10:02:00;19.90;99.90
63313;DHT22;49442;45.640;13.812;2022-10-16T10:04:38;20.00;99.90
63313;DHT22;49442;45.640;13.812;2022-10-16T10:07:04;20.00;99.90
63313;DHT22;49442;45.640;13.812;2022-10-16T10:09:39;20.00;99.90
63313;DHT22;49442;45.640;13.812;2022-10-16T10:12:14;20.10;99.90
63313;DHT22;49442;45.640;13.812;2022-10-16T10:14:54;20.10;99.90
63313;DHT22;49442;45.640;13.812;2022-10-16T10:17:22;20.20;99.90
63313;DHT22;49442;45.640;13.812;2022-10-16T10:22:39;20.30;99.90
63313;DHT22;49442;45.640;13.812;2022-10-16T10:31:06;20.40;99.90
63313;DHT22;49442;45.640;13.812;2022-10-16T10:33:58;20.40;99.90
63313;DHT22;49442;45.640;13.812;2022-10-16T10:36:36;20.50;99.90
63313;DHT22;49442;45.640;13.812;2022-10-16T10:55:28;20.70;99.90
63313;DHT22;49442;45.640;13.812;2022-10-16T11:06:24;20.60;99.90
63313;DHT22;49442;45.640;13.812;2022-10-16T11:09:10;20.60;99.90
63313;DHT22;49442;45.640;13.812;2022-10-16T11:11:47;20.60;99.90
63313;DHT22;49442;45.640;13.812;2022-10-16T11:14:30;20.60;99.90
63313;DHT22;49442;45.640;13.812;2022-10-16T11:20:19;20.60;99.90
63313;DHT22;49442;45.640;13.812;2022-10-16T11:22:54;20.70;99.90
63313;DHT22;49442;45.640;13.812;2022-10-16T11:25:30;20.70;99.90
63313;DHT22;49442;45.640;13.812;2022-10-16T11:28:19;20.70;99.90
63313;DHT22;49442;45.640;13.812;2022-10-16T11:35:59;20.90;99.90
63313;DHT22;49442;45.640;13.812;2022-10-16T11:38:55;20.90;99.90
63313;DHT22;49442;45.640;13.812;2022-10-16T11:41:35;21.00;99.90
63313;DHT22;49442;45.640;13.812;2022-10-16T11:44:24;21.10;99.90
63313;DHT22;49442;45.640;13.812;2022-10-16T11:46:58;21.10;99.90
63313;DHT22;49442;45.640;13.812;2022-10-16T11:49:31;21.10;99.90
63313;DHT22;49442;45.640;13.812;2022-10-16T11:52:07;21.20;99.90
63313;DHT22;49442;45.640;13.812;2022-10-16T11:54:47;21.20;99.90
63313;DHT22;49442;45.640;13.812;2022-10-16T11:57:36;21.20;99.90
63313;DHT22;49442;45.640;13.812;2022-10-16T12:00:09;21.30;99.90
63313;DHT22;49442;45.640;13.812;2022-10-16T12:03:00;21.30;99.90
63313;DHT22;49442;45.640;13.812;2022-10-16T12:08:13;21.40;99.90
63313;DHT22;49442;45.640;13.812;2022-10-16T12:10:42;21.40;99.90
63313;DHT22;49442;45.640;13.812;2022-10-16T12:13:34;21.40;99.90
63313;DHT22;49442;45.640;13.812;2022-10-16T12:18:39;21.30;99.90
63313;DHT22;49442;45.640;13.812;2022-10-16T12:21:05;21.20;99.90
63313;DHT22;49442;45.640;13.812;2022-10-16T12:23:53;21.30;99.90
63313;DHT22;49442;45.640;13.812;2022-10-16T12:26:33;21.30;99.90
63313;DHT22;49442;45.640;13.812;2022-10-16T12:31:48;21.50;99.90
63313;DHT22;49442;45.640;13.812;2022-10-16T12:34:43;21.50;99.90
63313;DHT22;49442;45.640;13.812;2022-10-16T12:37:20;21.40;99.90
63313;DHT22;49442;45.640;13.812;2022-10-16T12:39:47;21.40;99.90
63313;DHT22;49442;45.640;13.812;2022-10-16T12:44:52;21.50;99.90
63313;DHT22;49442;45.640;13.812;2022-10-16T12:47:23;21.40;99.90
63313;DHT22;49442;45.640;13.812;2022-10-16T12:49:52;21.30;99.90
63313;DHT22;49442;45.640;13.812;2022-10-16T12:54:59;21.20;99.90
63313;DHT22;49442;45.640;13.812;2022-10-16T12:57:32;21.10;99.90
63313;DHT22;49442;45.640;13.812;2022-10-16T13:09:34;21.40;99.90
63313;DHT22;49442;45.640;13.812;2022-10-16T13:20:26;21.40;99.90
63313;DHT22;49442;45.640;13.812;2022-10-16T13:22:56;21.40;99.90
63313;DHT22;49442;45.640;13.812;2022-10-16T13:28:18;21.30;99.90
63313;DHT22;49442;45.640;13.812;2022-10-16T13:30:52;21.30;99.90
63313;DHT22;49442;45.640;13.812;2022-10-16T13:33:39;21.30;99.90
63313;DHT22;49442;45.640;13.812;2022-10-16T13:36:26;21.30;99.90
63313;DHT22;49442;45.640;13.812;2022-10-16T13:39:14;21.30;99.90
63313;DHT22;49442;45.640;13.812;2022-10-16T13:41:40;21.30;99.90
63313;DHT22;49442;45.640;13.812;2022-10-16T13:44:18;21.20;99.90
63313;DHT22;49442;45.640;13.812;2022-10-16T13:46:45;21.20;99.90
63313;DHT22;49442;45.640;13.812;2022-10-16T13:49:16;21.20;99.90
63313;DHT22;49442;45.640;13.812;2022-10-16T13:51:54;21.20;99.90
63313;DHT22;49442;45.640;13.812;2022-10-16T13:54:21;21.20;99.90
63313;DHT22;49442;45.640;13.812;2022-10-16T13:56:46;21.20;99.90
63313;DHT22;49442;45.640;13.812;2022-10-16T13:59:26;21.20;99.90
63313;DHT22;49442;45.640;13.812;2022-10-16T14:01:58;21.10;99.90
63313;DHT22;49442;45.640;13.812;2022-10-16T14:04:25;21.10;99.90
63313;DHT22;49442;45.640;13.812;2022-10-16T14:06:53;21.10;99.90
63313;DHT22;49442;45.640;13.812;2022-10-16T14:09:24;21.10;99.90
63313;DHT22;49442;45.640;13.812;2022-10-16T14:11:55;21.10;99.90
63313;DHT22;49442;45.640;13.812;2022-10-16T14:14:22;21.10;99.90
63313;DHT22;49442;45.640;13.812;2022-10-16T14:16:48;21.10;99.90
63313;DHT22;49442;45.640;13.812;2022-10-16T14:19:29;21.00;99.90
63313;DHT22;49442;45.640;13.812;2022-10-16T14:21:55;21.00;99.90
63313;DHT22;49442;45.640;13.812;2022-10-16T14:24:33;20.90;99.90
63313;DHT22;49442;45.640;13.812;2022-10-16T14:27:00;20.90;99.90
63313;DHT22;49442;45.640;13.812;2022-10-16T14:29:28;20.90;99.90
63313;DHT22;49442;45.640;13.812;2022-10-16T14:32:00;20.80;99.90
63313;DHT22;49442;45.640;13.812;2022-10-16T14:34:28;20.80;99.90
63313;DHT22;49442;45.640;13.812;2022-10-16T14:36:55;20.80;99.90
63313;DHT22;49442;45.640;13.812;2022-10-16T14:39:22;20.80;99.90
63313;DHT22;49442;45.640;13.812;2022-10-16T14:41:50;20.80;99.90
63313;DHT22;49442;45.640;13.812;2022-10-16T14:44:17;20.80;99.90
63313;DHT22;49442;45.640;13.812;2022-10-16T14:46:45;20.70;99.90
63313;DHT22;49442;45.640;13.812;2022-10-16T14:49:17;20.80;99.90
63313;DHT22;49442;45.640;13.812;2022-10-16T14:51:45;20.70;99.90
63313;DHT22;49442;45.640;13.812;2022-10-16T14:54:16;20.70;99.90
63313;DHT22;49442;45.640;13.812;2022-10-16T14:56:53;20.80;99.90
63313;DHT22;49442;45.640;13.812;2022-10-16T14:59:32;20.70;99.90
63313;DHT22;49442;45.640;13.812;2022-10-16T15:01:59;20.70;99.90
63313;DHT22;49442;45.640;13.812;2022-10-16T15:04:26;20.60;99.90
63313;DHT22;49442;45.640;13.812;2022-10-16T15:06:51;20.60;99.90
63313;DHT22;49442;45.640;13.812;2022-10-16T15:09:17;20.50;99.90
63313;DHT22;49442;45.640;13.812;2022-10-16T15:11:43;20.50;99.90
63313;DHT22;49442;45.640;13.812;2022-10-16T15:14:12;20.40;99.90
63313;DHT22;49442;45.640;13.812;2022-10-16T15:16:38;20.40;99.90
63313;DHT22;49442;45.640;13.812;2022-10-16T15:19:07;20.30;99.90
63313;DHT22;49442;45.640;13.812;2022-10-16T15:21:33;20.30;99.90
63313;DHT22;49442;45.640;13.812;2022-10-16T15:24:00;20.30;99.90
63313;DHT22;49442;45.640;13.812;2022-10-16T15:26:27;20.20;99.90
63313;DHT22;49442;45.640;13.812;2022-10-16T15:28:53;20.10;99.90
63313;DHT22;49442;45.640;13.812;2022-10-16T15:31:19;20.00;99.90
63313;DHT22;49442;45.640;13.812;2022-10-16T15:33:50;19.90;99.90
63313;DHT22;49442;45.640;13.812;2022-10-16T15:36:28;19.90;99.90
63313;DHT22;49442;45.640;13.812;2022-10-16T15:38:54;19.80;99.90
63313;DHT22;49442;45.640;13.812;2022-10-16T15:41:20;19.80;99.90
63313;DHT22;49442;45.640;13.812;2022-10-16T15:43:48;19.70;99.90
63313;DHT22;49442;45.640;13.812;2022-10-16T15:46:16;19.70;99.90
63313;DHT22;49442;45.640;13.812;2022-10-16T15:48:42;19.60;99.90
63313;DHT22;49442;45.640;13.812;2022-10-16T15:51:08;19.50;99.90
63313;DHT22;49442;45.640;13.812;2022-10-16T15:53:34;19.40;99.90
63313;DHT22;49442;45.640;13.812;2022-10-16T15:56:04;19.40;99.90
63313;DHT22;49442;45.640;13.812;2022-10-16T15:58:31;19.30;99.90
63313;DHT22;49442;45.640;13.812;2022-10-16T16:01:00;19.20;99.90
63313;DHT22;49442;45.640;13.812;2022-10-16T16:03:27;19.20;99.90
63313;DHT22;49442;45.640;13.812;2022-10-16T16:05:54;19.10;99.90
63313;DHT22;49442;45.640;13.812;2022-10-16T16:08:20;19.10;99.90
63313;DHT22;49442;45.640;13.812;2022-10-16T16:11:00;19.00;99.90
63313;DHT22;49442;45.640;13.812;2022-10-16T16:13:27;18.90;99.90
63313;DHT22;49442;45.640;13.812;2022-10-16T16:15:53;18.80;99.90
63313;DHT22;49442;45.640;13.812;2022-10-16T16:18:18;18.80;99.90
63313;DHT22;49442;45.640;13.812;2022-10-16T16:20:44;18.80;99.90
63313;DHT22;49442;45.640;13.812;2022-10-16T16:23:09;18.70;99.90
63313;DHT22;49442;45.640;13.812;2022-10-16T16:25:36;18.60;99.90
63313;DHT22;49442;45.640;13.812;2022-10-16T16:28:01;18.60;99.90
63313;DHT22;49442;45.640;13.812;2022-10-16T16:30:27;18.60;99.90
63313;DHT22;49442;45.640;13.812;2022-10-16T16:32:53;18.50;99.90
63313;DHT22;49442;45.640;13.812;2022-10-16T16:35:18;18.50;99.90
63313;DHT22;49442;45.640;13.812;2022-10-16T16:37:44;18.50;99.90
63313;DHT22;49442;45.640;13.812;2022-10-16T16:40:10;18.30;99.90
63313;DHT22;49442;45.640;13.812;2022-10-16T16:42:36;18.30;99.90
63313;DHT22;49442;45.640;13.812;2022-10-16T16:45:01;18.30;99.90
63313;DHT22;49442;45.640;13.812;2022-10-16T16:47:27;18.20;99.90
63313;DHT22;49442;45.640;13.812;2022-10-16T16:49:52;18.20;99.90
63313;DHT22;49442;45.640;13.812;2022-10-16T16:52:18;18.20;99.90
63313;DHT22;49442;45.640;13.812;2022-10-16T16:54:44;18.10;99.90
63313;DHT22;49442;45.640;13.812;2022-10-16T16:57:17;18.10;99.90
63313;DHT22;49442;45.640;13.812;2022-10-16T16:59:43;18.00;99.90
63313;DHT22;49442;45.640;13.812;2022-10-16T17:02:09;18.00;99.90
63313;DHT22;49442;45.640;13.812;2022-10-16T17:04:34;18.00;99.90
63313;DHT22;49442;45.640;13.812;2022-10-16T17:07:00;17.90;99.90
63313;DHT22;49442;45.640;13.812;2022-10-16T17:09:26;17.90;99.90
63313;DHT22;49442;45.640;13.812;2022-10-16T17:11:52;17.80;99.90
63313;DHT22;49442;45.640;13.812;2022-10-16T17:14:18;17.80;99.90
63313;DHT22;49442;45.640;13.812;2022-10-16T17:16:43;17.80;99.90
63313;DHT22;49442;45.640;13.812;2022-10-16T17:19:13;17.70;99.90
63313;DHT22;49442;45.640;13.812;2022-10-16T17:21:40;17.70;99.90
63313;DHT22;49442;45.640;13.812;2022-10-16T17:24:06;17.70;99.90